To NAV CANADA Home Page Login to a new session Search on AWWS site Disclaimer Vers la page française équivalente Tips FAQ What's new on the site To the Forecasts and Observations / NOTAM section To "File a Flight Plan" website Publications and other links Update of the User's profile FIC Telephone Numbers My Weather Data Folder Route Weather Data Regional Weather Data Local Weather Data To the Forecasts and Observations / NOTAM section
Request Generated 07/17/2018 at 12:59:11 UTC . Weather information available at that time is displayed.

METAR/TAF

WHITEHORSE/ERIK NIELSEN INTL/YT    

METAR CYXY 171200Z 23004KT 40SM FEW120 SCT240 05/02 A2998 RMK AC1CI2 SLP172=
METAR CYXY 171100Z 24004KT 40SM FEW120 SCT240 07/02 A2997 RMK AC1CI2 SLP168=
METAR CYXY 171000Z 17007KT 15SM FEW090 FEW240 08/03 A2996 RMK AC1CI1 CI TR SLP165=

TAF CYXY 171139Z 1712/1812 24005KT P6SM SCT080
FM171600 15005KT P6SM BKN060 TEMPO 1720/1723 P6SM -SHRA
FM180000 35005KT P6SM BKN140
FM180900 28005KT P6SM -SHRA BKN040
RMK NXT FCST BY 171800Z=
Your time UTC time
Weather data provided by Environment Canada and NAV CANADA